createdAt,value
2023-02-21T00:00:38.027Z,7.28
2023-02-21T00:03:40.824Z,7.26
2023-02-21T00:06:27.222Z,7.23
2023-02-21T00:09:13.417Z,7.23
2023-02-21T00:12:00.744Z,7.26
2023-02-21T00:14:47.070Z,7.28
2023-02-21T00:17:33.606Z,7.32
2023-02-21T00:20:20.500Z,7.35
2023-02-21T00:23:07.169Z,7.35
2023-02-21T00:25:53.425Z,7.35
2023-02-21T00:28:39.833Z,7.36
2023-02-21T00:31:25.916Z,7.36
2023-02-21T00:34:12.432Z,7.36
2023-02-21T00:37:00.484Z,7.38
2023-02-21T00:39:46.993Z,7.38
2023-02-21T00:42:33.198Z,7.38
2023-02-21T00:45:19.370Z,7.36
2023-02-21T00:48:06.076Z,7.43
2023-02-21T00:50:52.094Z,7.43
2023-02-21T00:53:38.225Z,7.46
2023-02-21T00:56:24.775Z,7.39
2023-02-21T00:59:11.100Z,7.38
2023-02-21T01:01:58.785Z,7.33
2023-02-21T01:04:44.926Z,7.29
2023-02-21T01:07:33.998Z,7.26
2023-02-21T01:10:20.287Z,7.21
2023-02-21T01:13:06.950Z,7.22
2023-02-21T01:15:53.445Z,7.16
2023-02-21T01:18:39.608Z,7.15
2023-02-21T01:21:30.714Z,7.10
2023-02-21T01:24:17.425Z,7.07
2023-02-21T01:27:03.512Z,7.05
2023-02-21T01:29:49.663Z,7.02
2023-02-21T01:32:36.181Z,7.01
2023-02-21T01:35:22.824Z,7.01
2023-02-21T01:38:11.228Z,7.05
2023-02-21T01:40:59.027Z,7.11
2023-02-21T01:43:45.714Z,7.16
2023-02-21T01:46:32.837Z,7.21
2023-02-21T01:49:20.982Z,7.23
2023-02-21T01:52:08.249Z,7.25
2023-02-21T01:54:56.542Z,7.22
2023-02-21T01:57:44.340Z,7.21
2023-02-21T02:00:33.405Z,7.18
2023-02-21T02:03:21.119Z,7.12
2023-02-21T02:06:10.157Z,7.05
2023-02-21T02:08:56.849Z,7.02
2023-02-21T02:11:57.815Z,7.01
2023-02-21T02:14:43.931Z,7.00
2023-02-21T02:17:16.662Z,6.98
2023-02-21T02:20:06.532Z,6.94
2023-02-21T02:23:05.003Z,6.94
2023-02-21T02:25:43.045Z,6.88
2023-02-21T02:28:21.610Z,6.87
2023-02-21T02:31:14.161Z,6.87
2023-02-21T02:33:52.583Z,6.87
2023-02-21T02:36:21.786Z,6.83
2023-02-21T02:38:56.282Z,6.87
2023-02-21T02:41:28.949Z,6.84
2023-02-21T02:44:06.392Z,6.84
2023-02-21T02:46:37.148Z,6.82
2023-02-21T02:49:09.557Z,6.80
2023-02-21T02:51:37.461Z,6.74
2023-02-21T02:54:06.386Z,6.73
2023-02-21T02:56:36.383Z,6.70
2023-02-21T02:59:06.202Z,6.63
2023-02-21T03:01:42.853Z,6.63
2023-02-21T03:04:21.139Z,6.63
2023-02-21T03:06:53.431Z,6.61
2023-02-21T03:09:25.279Z,6.61
2023-02-21T03:11:57.050Z,6.59
2023-02-21T03:14:32.257Z,6.55
2023-02-21T03:17:04.276Z,6.55
2023-02-21T03:19:34.854Z,6.60
2023-02-21T03:22:05.354Z,6.66
2023-02-21T03:24:34.067Z,6.66
2023-02-21T03:27:05.684Z,6.67
2023-02-21T03:30:04.264Z,6.65
2023-02-21T03:32:34.284Z,6.67
2023-02-21T03:35:03.384Z,6.66
2023-02-21T03:37:32.636Z,6.65
2023-02-21T03:40:01.128Z,6.67
2023-02-21T03:42:29.364Z,6.65
2023-02-21T03:44:58.027Z,6.60
2023-02-21T03:47:26.138Z,6.59
2023-02-21T03:49:54.019Z,6.56
2023-02-21T03:52:22.046Z,6.52
2023-02-21T03:54:50.901Z,6.52
2023-02-21T03:57:20.584Z,6.46
2023-02-21T03:59:49.503Z,6.45
2023-02-21T04:02:18.658Z,6.39
2023-02-21T04:04:48.240Z,6.35
2023-02-21T04:07:19.992Z,6.29
2023-02-21T04:09:49.049Z,6.29
2023-02-21T04:12:22.192Z,6.26
2023-02-21T04:14:51.787Z,6.21
2023-02-21T04:17:19.656Z,6.18
2023-02-21T04:19:48.038Z,6.15
2023-02-21T04:22:16.153Z,6.11
2023-02-21T04:24:44.133Z,6.10
2023-02-21T04:27:12.370Z,6.08
2023-02-21T04:29:45.087Z,6.02
2023-02-21T04:32:13.117Z,6.01
2023-02-21T04:34:41.464Z,5.97
2023-02-21T04:37:10.280Z,5.91
2023-02-21T04:39:38.080Z,5.91
2023-02-21T04:42:05.970Z,5.89
2023-02-21T04:44:34.429Z,5.84
2023-02-21T04:47:02.339Z,5.83
2023-02-21T04:49:30.151Z,5.80
2023-02-21T04:52:00.297Z,5.82
2023-02-21T04:54:28.129Z,5.80
2023-02-21T04:56:55.985Z,5.80
2023-02-21T04:59:23.857Z,5.86
2023-02-21T05:01:51.603Z,5.89
2023-02-21T05:04:19.472Z,5.90
2023-02-21T05:06:47.286Z,5.94
2023-02-21T05:09:15.232Z,5.93
2023-02-21T05:11:43.117Z,5.96
2023-02-21T05:14:10.897Z,5.97
2023-02-21T05:16:38.763Z,6.02
2023-02-21T05:19:06.917Z,6.02
2023-02-21T05:21:37.007Z,6.08
2023-02-21T05:24:05.047Z,6.12
2023-02-21T05:26:34.814Z,6.11
2023-02-21T05:29:03.001Z,6.11
2023-02-21T05:31:30.847Z,6.17
2023-02-21T05:34:01.203Z,6.18
2023-02-21T05:36:29.030Z,6.17
2023-02-21T05:38:57.123Z,6.14
2023-02-21T05:41:26.461Z,6.18
2023-02-21T05:43:54.466Z,6.18
2023-02-21T05:46:24.632Z,6.18
2023-02-21T05:48:52.895Z,6.18
2023-02-21T05:51:21.052Z,6.19
2023-02-21T05:53:49.255Z,6.22
2023-02-21T05:56:17.716Z,6.22
2023-02-21T05:58:45.498Z,6.24
2023-02-21T06:01:13.939Z,6.26
2023-02-21T06:03:42.679Z,6.25
2023-02-21T06:06:10.538Z,6.31
2023-02-21T06:08:46.278Z,6.29
2023-02-21T06:11:14.430Z,6.28
2023-02-21T06:13:42.752Z,6.28
2023-02-21T06:16:10.603Z,6.29
2023-02-21T06:18:38.880Z,6.29
2023-02-21T06:21:06.685Z,6.35
2023-02-21T06:23:34.937Z,6.32
2023-02-21T06:26:02.799Z,6.36
2023-02-21T06:28:30.961Z,6.39
2023-02-21T06:30:59.288Z,6.40
2023-02-21T06:33:27.501Z,6.42
2023-02-21T06:35:55.328Z,6.42
2023-02-21T06:38:23.229Z,6.45
2023-02-21T06:40:51.649Z,6.46
2023-02-21T06:43:19.774Z,6.45
2023-02-21T06:45:47.618Z,6.45
2023-02-21T06:48:15.783Z,6.50
2023-02-21T06:50:43.604Z,6.52
2023-02-21T06:53:11.486Z,6.61
2023-02-21T06:55:39.298Z,6.59
2023-02-21T06:58:07.079Z,6.60
2023-02-21T07:00:35.257Z,6.61
2023-02-21T07:03:03.294Z,6.60
2023-02-21T07:05:34.140Z,6.61
2023-02-21T07:08:02.654Z,6.65
2023-02-21T07:10:30.586Z,6.65
2023-02-21T07:12:59.284Z,6.66
2023-02-21T07:15:28.063Z,6.66
2023-02-21T07:17:55.965Z,6.67
2023-02-21T07:20:23.793Z,6.67
2023-02-21T07:22:51.611Z,6.66
2023-02-21T07:25:21.114Z,6.65
2023-02-21T07:27:49.081Z,6.65
2023-02-21T07:30:17.260Z,6.63
2023-02-21T07:32:48.293Z,6.61
2023-02-21T07:35:16.436Z,6.65
2023-02-21T07:37:44.597Z,6.63
2023-02-21T07:40:12.634Z,6.66
2023-02-21T07:42:43.582Z,6.65
2023-02-21T07:45:11.886Z,6.65
2023-02-21T07:47:39.703Z,6.66
2023-02-21T07:50:07.824Z,6.67
2023-02-21T07:52:35.652Z,6.67
2023-02-21T07:55:03.513Z,6.67
2023-02-21T07:57:31.329Z,6.67
2023-02-21T08:00:00.020Z,6.72
2023-02-21T08:02:27.840Z,6.74
2023-02-21T08:04:55.703Z,6.79
2023-02-21T08:07:24.751Z,6.82
2023-02-21T08:09:52.568Z,6.83
2023-02-21T08:12:20.360Z,6.94
2023-02-21T08:14:48.198Z,7.00
2023-02-21T08:17:16.448Z,7.07
2023-02-21T08:19:44.255Z,7.10
2023-02-21T08:22:12.100Z,7.15
2023-02-21T08:24:39.905Z,7.23
2023-02-21T08:27:07.705Z,7.23
2023-02-21T08:29:35.692Z,7.25
2023-02-21T08:32:03.751Z,7.23
2023-02-21T08:34:31.571Z,7.25
2023-02-21T08:37:00.781Z,7.28
2023-02-21T08:39:31.456Z,7.30
2023-02-21T08:42:02.280Z,7.32
2023-02-21T08:44:30.106Z,7.36
2023-02-21T08:46:59.881Z,7.39
2023-02-21T08:49:27.700Z,7.38
2023-02-21T08:51:55.529Z,7.39
2023-02-21T08:54:23.386Z,7.36
2023-02-21T08:56:51.504Z,7.38
2023-02-21T08:59:19.381Z,7.36
2023-02-21T09:01:47.330Z,7.33
2023-02-21T09:04:15.315Z,7.33
2023-02-21T09:06:43.174Z,7.30
2023-02-21T09:09:11.033Z,7.30
2023-02-21T09:11:39.103Z,7.26
2023-02-21T09:14:06.981Z,7.29
2023-02-21T09:16:34.827Z,7.25
2023-02-21T09:19:06.196Z,7.25
2023-02-21T09:21:34.567Z,7.29
2023-02-21T09:24:02.741Z,7.32
2023-02-21T09:26:31.666Z,7.38
2023-02-21T09:29:00.227Z,7.38
2023-02-21T09:31:28.239Z,7.43
2023-02-21T09:33:56.149Z,7.46
2023-02-21T09:36:26.523Z,7.61
2023-02-21T09:38:54.450Z,7.68
2023-02-21T09:41:22.369Z,7.76
2023-02-21T09:43:53.631Z,8.28
2023-02-21T09:46:27.999Z,8.84
2023-02-21T09:48:56.746Z,8.98
2023-02-21T09:51:26.125Z,9.54
2023-02-21T09:53:55.800Z,10.86
2023-02-21T09:56:27.632Z,11.26
2023-02-21T09:58:56.435Z,12.44
2023-02-21T10:01:29.401Z,12.80
2023-02-21T10:04:05.178Z,12.44
2023-02-21T10:06:39.678Z,11.99
2023-02-21T10:09:08.751Z,11.53
2023-02-21T10:11:41.890Z,11.19
2023-02-21T10:14:21.978Z,10.82
2023-02-21T10:16:53.817Z,10.50
2023-02-21T10:19:25.770Z,10.26
2023-02-21T10:21:59.000Z,10.12
2023-02-21T10:24:28.204Z,10.09
2023-02-21T10:27:00.316Z,10.01
2023-02-21T10:29:35.404Z,9.94
2023-02-21T10:32:03.986Z,9.91
2023-02-21T10:34:33.802Z,9.95
2023-02-21T10:37:06.401Z,9.94
2023-02-21T10:39:39.436Z,9.92
2023-02-21T10:42:09.264Z,9.92
2023-02-21T10:44:37.241Z,9.95
2023-02-21T10:47:09.001Z,9.94
2023-02-21T10:49:40.869Z,9.99
2023-02-21T10:52:12.599Z,10.03
2023-02-21T10:54:40.495Z,10.02
2023-02-21T10:57:10.466Z,9.99
2023-02-21T10:59:41.673Z,10.06
2023-02-21T11:02:23.850Z,10.20
2023-02-21T11:04:53.145Z,10.44
2023-02-21T11:07:23.032Z,10.63
2023-02-21T11:09:50.899Z,10.85
2023-02-21T11:12:21.154Z,10.96
2023-02-21T11:15:03.612Z,10.95
2023-02-21T11:17:32.454Z,10.79
2023-02-21T11:20:07.781Z,10.75
2023-02-21T11:22:37.740Z,10.72
2023-02-21T11:25:08.189Z,10.63
2023-02-21T11:27:36.908Z,10.45
2023-02-21T11:30:14.108Z,10.29
2023-02-21T11:32:42.809Z,10.10
2023-02-21T11:35:23.052Z,9.99
2023-02-21T11:37:52.757Z,9.81
2023-02-21T11:40:25.355Z,9.69
2023-02-21T11:43:09.684Z,9.64
2023-02-21T11:45:38.315Z,9.62
2023-02-21T11:48:11.677Z,9.71
2023-02-21T11:50:46.255Z,9.84
2023-02-21T11:53:18.673Z,10.02
2023-02-21T11:55:54.831Z,10.10
2023-02-21T11:58:25.349Z,10.16
2023-02-21T12:01:01.957Z,10.09
2023-02-21T12:03:46.491Z,9.91
2023-02-21T12:06:19.081Z,9.88
2023-02-21T12:08:51.815Z,9.95
2023-02-21T12:11:32.917Z,10.08
2023-02-21T12:14:12.723Z,10.19
2023-02-21T12:16:46.383Z,10.27
2023-02-21T12:19:26.067Z,10.41
2023-02-21T12:22:11.091Z,10.51
2023-02-21T12:24:46.551Z,10.60
2023-02-21T17:13:26.828Z,6.59
2023-02-21T17:15:55.001Z,6.55
2023-02-21T17:18:22.855Z,6.55
2023-02-21T17:20:50.810Z,6.55
2023-02-21T17:23:18.679Z,6.52
2023-02-21T17:25:46.519Z,6.53
2023-02-21T17:28:14.309Z,6.52
2023-02-21T17:30:42.184Z,6.52
2023-02-21T17:33:10.684Z,6.50
2023-02-21T17:35:38.513Z,6.49
2023-02-21T17:38:06.590Z,6.46
2023-02-21T17:40:34.452Z,6.48
2023-02-21T17:43:02.801Z,6.49
2023-02-21T17:45:30.711Z,6.48
2023-02-21T17:48:00.052Z,6.45
2023-02-21T17:50:27.987Z,6.42
2023-02-21T17:52:55.946Z,6.45
2023-02-21T17:55:25.453Z,6.45
2023-02-21T17:57:53.294Z,6.40
2023-02-21T18:00:24.470Z,6.40
2023-02-21T18:02:52.981Z,6.40
2023-02-21T18:05:21.393Z,6.40
2023-02-21T18:07:50.295Z,6.42
2023-02-21T18:10:19.612Z,6.39
2023-02-21T18:12:50.861Z,6.39
2023-02-21T18:15:20.394Z,6.39
2023-02-21T18:17:48.269Z,6.40
2023-02-21T18:20:16.612Z,6.38
2023-02-21T18:22:44.761Z,6.38
2023-02-21T18:25:14.008Z,6.33
2023-02-21T18:27:42.225Z,6.33
2023-02-21T18:30:11.292Z,6.31
2023-02-21T18:32:39.190Z,6.29
2023-02-21T18:35:07.452Z,6.25
2023-02-21T18:37:35.342Z,6.22
2023-02-21T18:40:04.878Z,6.18
2023-02-21T18:42:32.746Z,6.15
2023-02-21T18:45:00.778Z,6.12
2023-02-21T18:47:30.324Z,6.07
2023-02-21T18:49:59.056Z,6.07
2023-02-21T18:52:27.609Z,6.00
2023-02-21T18:54:59.458Z,6.00
2023-02-21T18:57:27.379Z,5.97
2023-02-21T18:59:55.409Z,5.91
2023-02-21T19:02:23.315Z,5.89
2023-02-21T19:04:51.239Z,5.82
2023-02-21T19:07:19.085Z,5.74
2023-02-21T19:09:49.564Z,5.69
2023-02-21T19:12:17.855Z,5.62
2023-02-21T19:14:45.670Z,5.61
2023-02-21T19:17:14.081Z,5.56
2023-02-21T19:19:42.084Z,5.49
2023-02-21T19:22:09.941Z,5.45
2023-02-21T19:24:37.913Z,5.39
2023-02-21T19:27:05.885Z,5.35
2023-02-21T19:29:33.772Z,5.29
2023-02-21T19:32:01.689Z,5.27
2023-02-21T19:34:29.689Z,5.22
2023-02-21T19:36:58.854Z,5.15
2023-02-21T19:39:27.165Z,5.15
2023-02-21T19:41:55.354Z,5.11
2023-02-21T19:44:23.482Z,5.10
2023-02-21T19:46:51.843Z,5.06
2023-02-21T19:49:20.072Z,5.03
2023-02-21T19:51:48.510Z,5.00
2023-02-21T19:54:17.273Z,4.96
2023-02-21T19:56:45.132Z,4.91
2023-02-21T19:59:13.343Z,4.89
2023-02-21T20:01:41.172Z,4.86
2023-02-21T20:04:09.514Z,4.86
2023-02-21T20:06:37.659Z,4.83
2023-02-21T20:09:07.545Z,4.77
2023-02-21T20:11:39.410Z,4.75
2023-02-21T20:14:07.828Z,4.76
2023-02-21T20:16:38.365Z,4.77
2023-02-21T20:19:07.196Z,4.79
2023-02-21T20:21:35.155Z,4.79
2023-02-21T20:24:03.122Z,4.84
2023-02-21T20:26:31.055Z,4.87
2023-02-21T20:29:02.036Z,4.91
2023-02-21T20:31:32.023Z,4.94
2023-02-21T20:34:02.401Z,4.94
2023-02-21T20:36:32.620Z,4.94
2023-02-21T20:39:00.965Z,4.91
2023-02-21T20:41:30.520Z,4.89
2023-02-21T20:43:58.933Z,4.89
2023-02-21T20:46:28.210Z,4.80
2023-02-21T20:48:58.761Z,4.80
2023-02-21T20:51:30.454Z,4.76
2023-02-21T20:54:00.508Z,4.72
2023-02-21T20:56:33.373Z,4.69
2023-02-21T20:59:02.135Z,4.65
2023-02-21T21:01:30.162Z,4.63
2023-02-21T21:03:58.814Z,4.62
2023-02-21T21:06:26.620Z,4.63
2023-02-21T21:08:54.536Z,4.65
2023-02-21T21:11:22.503Z,4.66
2023-02-21T21:13:50.350Z,4.69
2023-02-21T21:16:19.716Z,4.71
2023-02-21T21:18:47.601Z,4.72
2023-02-21T21:21:15.828Z,4.75
2023-02-21T21:23:43.884Z,4.76
2023-02-21T21:26:11.754Z,4.77
2023-02-21T21:28:40.816Z,4.80
2023-02-21T21:31:08.880Z,4.82
2023-02-21T21:33:36.911Z,4.86
2023-02-21T21:36:08.370Z,4.89
2023-02-21T21:38:40.018Z,4.87
2023-02-21T21:41:13.035Z,4.90
2023-02-21T21:43:43.020Z,4.90
2023-02-21T21:46:11.797Z,4.91
2023-02-21T21:48:42.505Z,4.91
2023-02-21T21:51:11.132Z,4.91
2023-02-21T21:53:39.419Z,4.96
2023-02-21T21:56:07.784Z,4.91
2023-02-21T21:58:35.640Z,4.89
2023-02-21T22:01:05.073Z,4.89
2023-02-21T22:03:34.077Z,4.86
2023-02-21T22:06:01.991Z,4.82
2023-02-21T22:08:30.718Z,4.82
2023-02-21T22:10:59.890Z,4.80
2023-02-21T22:13:28.954Z,4.79
2023-02-21T22:15:56.934Z,4.77
2023-02-21T22:18:26.913Z,4.73
2023-02-21T22:20:54.818Z,4.69
2023-02-21T22:23:23.741Z,4.69
2023-02-21T22:25:52.139Z,4.65
2023-02-21T22:28:19.988Z,4.63
2023-02-21T22:30:47.965Z,4.61
2023-02-21T22:33:18.036Z,4.58
2023-02-21T22:35:46.680Z,4.56
2023-02-21T22:38:16.788Z,4.56
2023-02-21T22:40:45.816Z,4.52
2023-02-21T22:43:14.295Z,4.51
2023-02-21T22:45:48.989Z,4.51
2023-02-21T22:48:20.155Z,4.45
2023-02-21T22:50:49.245Z,4.44
2023-02-21T22:53:19.199Z,4.44
2023-02-21T22:55:51.631Z,4.41
2023-02-21T22:58:20.604Z,4.38
2023-02-21T23:00:49.594Z,4.38
2023-02-21T23:03:17.451Z,4.34
2023-02-21T23:05:46.356Z,4.35
2023-02-21T23:08:15.330Z,4.32
2023-02-21T23:10:43.254Z,4.32
2023-02-21T23:13:13.748Z,4.29
2023-02-21T23:15:42.181Z,4.29
2023-02-21T23:18:10.538Z,4.29
2023-02-21T23:20:38.393Z,4.29
2023-02-21T23:23:06.275Z,4.27
2023-02-21T23:25:34.864Z,4.24
2023-02-21T23:28:04.341Z,4.24
2023-02-21T23:30:39.775Z,4.21
2023-02-21T23:33:09.113Z,4.17
2023-02-21T23:35:36.925Z,4.13
2023-02-21T23:38:05.834Z,4.11
2023-02-21T23:40:38.703Z,4.07
2023-02-21T23:43:09.572Z,4.10
2023-02-21T23:45:39.025Z,4.10
2023-02-21T23:48:08.150Z,4.10
2023-02-21T23:50:36.978Z,4.10
2023-02-21T23:53:05.726Z,4.13
2023-02-21T23:55:35.436Z,4.13
2023-02-21T23:58:08.320Z,4.16
